sensor_id;sensor_type;location;lat;lon;timestamp;P1;durP1;ratioP1;P2;durP2;ratioP2
33844;SDS011;20145;43.118;25.694;2023-03-19T00:02:03;11.52;;;8.85;;
33844;SDS011;20145;43.118;25.694;2023-03-19T00:04:29;12.25;;;8.90;;
33844;SDS011;20145;43.118;25.694;2023-03-19T00:06:55;15.05;;;8.25;;
33844;SDS011;20145;43.118;25.694;2023-03-19T00:09:21;15.43;;;9.95;;
33844;SDS011;20145;43.118;25.694;2023-03-19T00:11:47;12.65;;;8.32;;
33844;SDS011;20145;43.118;25.694;2023-03-19T00:14:13;14.23;;;9.80;;
33844;SDS011;20145;43.118;25.694;2023-03-19T00:16:40;12.98;;;9.40;;
33844;SDS011;20145;43.118;25.694;2023-03-19T00:19:06;16.90;;;11.13;;
33844;SDS011;20145;43.118;25.694;2023-03-19T00:21:32;12.38;;;9.68;;
33844;SDS011;20145;43.118;25.694;2023-03-19T00:23:58;15.48;;;10.85;;
33844;SDS011;20145;43.118;25.694;2023-03-19T00:26:29;14.07;;;10.90;;
33844;SDS011;20145;43.118;25.694;2023-03-19T00:28:57;14.70;;;11.05;;
33844;SDS011;20145;43.118;25.694;2023-03-19T00:31:23;18.15;;;11.05;;
33844;SDS011;20145;43.118;25.694;2023-03-19T00:33:51;14.70;;;10.10;;
33844;SDS011;20145;43.118;25.694;2023-03-19T00:36:17;13.35;;;10.88;;
33844;SDS011;20145;43.118;25.694;2023-03-19T00:38:43;15.38;;;11.20;;
33844;SDS011;20145;43.118;25.694;2023-03-19T00:41:10;14.60;;;10.82;;
33844;SDS011;20145;43.118;25.694;2023-03-19T00:43:36;14.63;;;10.40;;
33844;SDS011;20145;43.118;25.694;2023-03-19T00:46:02;14.50;;;10.57;;
33844;SDS011;20145;43.118;25.694;2023-03-19T00:48:28;14.38;;;10.90;;
33844;SDS011;20145;43.118;25.694;2023-03-19T00:50:53;17.52;;;11.85;;
33844;SDS011;20145;43.118;25.694;2023-03-19T00:53:20;15.23;;;11.48;;
33844;SDS011;20145;43.118;25.694;2023-03-19T00:55:46;19.70;;;12.73;;
33844;SDS011;20145;43.118;25.694;2023-03-19T00:58:11;19.75;;;11.73;;
33844;SDS011;20145;43.118;25.694;2023-03-19T01:00:37;16.35;;;12.20;;
33844;SDS011;20145;43.118;25.694;2023-03-19T01:03:03;15.30;;;12.73;;
33844;SDS011;20145;43.118;25.694;2023-03-19T01:05:30;14.40;;;11.45;;
33844;SDS011;20145;43.118;25.694;2023-03-19T01:07:56;19.02;;;13.13;;
33844;SDS011;20145;43.118;25.694;2023-03-19T01:10:22;18.80;;;13.20;;
33844;SDS011;20145;43.118;25.694;2023-03-19T01:12:48;16.80;;;12.27;;
33844;SDS011;20145;43.118;25.694;2023-03-19T01:15:15;14.27;;;11.63;;
33844;SDS011;20145;43.118;25.694;2023-03-19T01:17:41;16.90;;;11.43;;
33844;SDS011;20145;43.118;25.694;2023-03-19T01:20:08;17.02;;;11.55;;
33844;SDS011;20145;43.118;25.694;2023-03-19T01:22:40;15.00;;;11.63;;
33844;SDS011;20145;43.118;25.694;2023-03-19T01:25:07;14.85;;;11.80;;
33844;SDS011;20145;43.118;25.694;2023-03-19T01:27:34;18.52;;;11.77;;
33844;SDS011;20145;43.118;25.694;2023-03-19T01:30:00;17.55;;;13.48;;
33844;SDS011;20145;43.118;25.694;2023-03-19T01:32:25;18.75;;;12.60;;
33844;SDS011;20145;43.118;25.694;2023-03-19T01:34:52;17.17;;;12.40;;
33844;SDS011;20145;43.118;25.694;2023-03-19T01:37:17;16.05;;;12.90;;
33844;SDS011;20145;43.118;25.694;2023-03-19T01:39:43;16.80;;;13.05;;
33844;SDS011;20145;43.118;25.694;2023-03-19T01:42:09;19.35;;;13.38;;
33844;SDS011;20145;43.118;25.694;2023-03-19T01:44:36;20.23;;;14.43;;
33844;SDS011;20145;43.118;25.694;2023-03-19T01:47:37;17.02;;;13.07;;
33844;SDS011;20145;43.118;25.694;2023-03-19T01:50:00;17.27;;;13.05;;
33844;SDS011;20145;43.118;25.694;2023-03-19T01:52:27;15.88;;;12.85;;
33844;SDS011;20145;43.118;25.694;2023-03-19T01:54:57;16.42;;;12.52;;
33844;SDS011;20145;43.118;25.694;2023-03-19T01:57:25;17.92;;;13.50;;
33844;SDS011;20145;43.118;25.694;2023-03-19T01:59:53;18.17;;;12.95;;
33844;SDS011;20145;43.118;25.694;2023-03-19T02:05:13;18.45;;;13.30;;
33844;SDS011;20145;43.118;25.694;2023-03-19T02:07:40;16.90;;;13.95;;
33844;SDS011;20145;43.118;25.694;2023-03-19T02:10:10;17.73;;;13.23;;
33844;SDS011;20145;43.118;25.694;2023-03-19T02:12:40;17.95;;;12.82;;
33844;SDS011;20145;43.118;25.694;2023-03-19T02:15:06;16.33;;;12.35;;
33844;SDS011;20145;43.118;25.694;2023-03-19T02:17:32;15.45;;;11.98;;
33844;SDS011;20145;43.118;25.694;2023-03-19T02:20:07;16.10;;;12.13;;
33844;SDS011;20145;43.118;25.694;2023-03-19T02:22:40;14.45;;;11.02;;
33844;SDS011;20145;43.118;25.694;2023-03-19T02:25:13;21.90;;;12.63;;
33844;SDS011;20145;43.118;25.694;2023-03-19T02:27:45;19.10;;;13.43;;
33844;SDS011;20145;43.118;25.694;2023-03-19T02:30:21;18.17;;;13.45;;
33844;SDS011;20145;43.118;25.694;2023-03-19T02:32:47;17.35;;;12.38;;
33844;SDS011;20145;43.118;25.694;2023-03-19T02:35:13;18.25;;;12.60;;
33844;SDS011;20145;43.118;25.694;2023-03-19T02:37:38;20.13;;;14.25;;
33844;SDS011;20145;43.118;25.694;2023-03-19T02:40:38;18.77;;;14.27;;
33844;SDS011;20145;43.118;25.694;2023-03-19T02:43:00;17.27;;;13.68;;
33844;SDS011;20145;43.118;25.694;2023-03-19T02:45:27;19.13;;;14.15;;
33844;SDS011;20145;43.118;25.694;2023-03-19T02:47:54;20.08;;;14.20;;
33844;SDS011;20145;43.118;25.694;2023-03-19T02:50:20;19.80;;;14.45;;
33844;SDS011;20145;43.118;25.694;2023-03-19T02:52:45;19.60;;;13.40;;
33844;SDS011;20145;43.118;25.694;2023-03-19T02:55:11;19.42;;;13.73;;
33844;SDS011;20145;43.118;25.694;2023-03-19T02:57:36;17.63;;;13.55;;
33844;SDS011;20145;43.118;25.694;2023-03-19T03:00:03;18.95;;;13.52;;
33844;SDS011;20145;43.118;25.694;2023-03-19T03:02:29;21.73;;;14.45;;
33844;SDS011;20145;43.118;25.694;2023-03-19T03:04:55;20.13;;;14.15;;
33844;SDS011;20145;43.118;25.694;2023-03-19T03:07:21;20.85;;;13.68;;
33844;SDS011;20145;43.118;25.694;2023-03-19T03:09:47;18.90;;;14.07;;
33844;SDS011;20145;43.118;25.694;2023-03-19T03:12:12;21.33;;;14.27;;
33844;SDS011;20145;43.118;25.694;2023-03-19T03:14:38;19.38;;;15.30;;
33844;SDS011;20145;43.118;25.694;2023-03-19T03:17:04;21.17;;;13.70;;
33844;SDS011;20145;43.118;25.694;2023-03-19T03:19:30;20.98;;;14.65;;
33844;SDS011;20145;43.118;25.694;2023-03-19T03:21:56;19.17;;;13.05;;
33844;SDS011;20145;43.118;25.694;2023-03-19T03:24:21;20.30;;;13.23;;
33844;SDS011;20145;43.118;25.694;2023-03-19T03:26:48;17.75;;;14.05;;
33844;SDS011;20145;43.118;25.694;2023-03-19T03:29:13;18.38;;;13.93;;
33844;SDS011;20145;43.118;25.694;2023-03-19T03:31:39;18.38;;;13.98;;
33844;SDS011;20145;43.118;25.694;2023-03-19T03:34:05;19.23;;;15.02;;
33844;SDS011;20145;43.118;25.694;2023-03-19T03:36:31;19.20;;;14.60;;
33844;SDS011;20145;43.118;25.694;2023-03-19T03:38:56;20.88;;;15.43;;
33844;SDS011;20145;43.118;25.694;2023-03-19T03:41:22;21.23;;;14.25;;
33844;SDS011;20145;43.118;25.694;2023-03-19T03:43:48;18.92;;;14.57;;
33844;SDS011;20145;43.118;25.694;2023-03-19T03:46:13;21.42;;;14.20;;
33844;SDS011;20145;43.118;25.694;2023-03-19T03:48:39;22.58;;;14.60;;
33844;SDS011;20145;43.118;25.694;2023-03-19T03:51:05;26.08;;;17.52;;
33844;SDS011;20145;43.118;25.694;2023-03-19T03:53:30;22.20;;;16.70;;
33844;SDS011;20145;43.118;25.694;2023-03-19T03:55:56;22.55;;;15.40;;
33844;SDS011;20145;43.118;25.694;2023-03-19T03:58:21;20.70;;;14.70;;
33844;SDS011;20145;43.118;25.694;2023-03-19T04:00:48;22.42;;;15.93;;
33844;SDS011;20145;43.118;25.694;2023-03-19T04:03:14;19.15;;;14.13;;
33844;SDS011;20145;43.118;25.694;2023-03-19T04:05:42;20.83;;;15.82;;
33844;SDS011;20145;43.118;25.694;2023-03-19T04:08:08;25.15;;;15.25;;
33844;SDS011;20145;43.118;25.694;2023-03-19T04:10:34;21.75;;;15.32;;
33844;SDS011;20145;43.118;25.694;2023-03-19T04:13:03;20.67;;;16.63;;
33844;SDS011;20145;43.118;25.694;2023-03-19T04:15:28;21.63;;;15.07;;
33844;SDS011;20145;43.118;25.694;2023-03-19T04:17:54;20.95;;;15.68;;
33844;SDS011;20145;43.118;25.694;2023-03-19T04:20:20;19.38;;;14.63;;
33844;SDS011;20145;43.118;25.694;2023-03-19T04:22:47;22.73;;;15.15;;
33844;SDS011;20145;43.118;25.694;2023-03-19T04:25:13;19.98;;;15.10;;
33844;SDS011;20145;43.118;25.694;2023-03-19T04:27:38;20.77;;;14.43;;
33844;SDS011;20145;43.118;25.694;2023-03-19T04:30:04;21.15;;;15.60;;
33844;SDS011;20145;43.118;25.694;2023-03-19T04:32:30;21.35;;;14.77;;
33844;SDS011;20145;43.118;25.694;2023-03-19T04:34:57;18.85;;;15.23;;
33844;SDS011;20145;43.118;25.694;2023-03-19T04:37:23;24.00;;;17.48;;
33844;SDS011;20145;43.118;25.694;2023-03-19T04:39:48;23.33;;;16.08;;
33844;SDS011;20145;43.118;25.694;2023-03-19T04:42:15;22.10;;;16.27;;
33844;SDS011;20145;43.118;25.694;2023-03-19T04:44:41;20.27;;;14.77;;
33844;SDS011;20145;43.118;25.694;2023-03-19T04:47:06;31.73;;;22.23;;
33844;SDS011;20145;43.118;25.694;2023-03-19T04:49:32;44.65;;;34.42;;
33844;SDS011;20145;43.118;25.694;2023-03-19T04:51:57;44.42;;;30.83;;
33844;SDS011;20145;43.118;25.694;2023-03-19T04:54:23;41.70;;;29.70;;
33844;SDS011;20145;43.118;25.694;2023-03-19T04:56:50;31.08;;;20.92;;
33844;SDS011;20145;43.118;25.694;2023-03-19T04:59:17;26.48;;;19.05;;
33844;SDS011;20145;43.118;25.694;2023-03-19T05:01:42;30.05;;;21.90;;
33844;SDS011;20145;43.118;25.694;2023-03-19T05:04:08;24.63;;;20.27;;
33844;SDS011;20145;43.118;25.694;2023-03-19T05:06:34;20.98;;;15.23;;
33844;SDS011;20145;43.118;25.694;2023-03-19T05:09:00;24.13;;;17.40;;
33844;SDS011;20145;43.118;25.694;2023-03-19T05:11:26;26.45;;;19.88;;
33844;SDS011;20145;43.118;25.694;2023-03-19T05:13:52;26.35;;;19.63;;
33844;SDS011;20145;43.118;25.694;2023-03-19T05:16:18;30.10;;;21.13;;
33844;SDS011;20145;43.118;25.694;2023-03-19T05:18:44;24.95;;;21.83;;
33844;SDS011;20145;43.118;25.694;2023-03-19T05:21:10;26.92;;;20.63;;
33844;SDS011;20145;43.118;25.694;2023-03-19T05:23:37;26.60;;;20.23;;
33844;SDS011;20145;43.118;25.694;2023-03-19T05:26:03;30.92;;;21.15;;
33844;SDS011;20145;43.118;25.694;2023-03-19T05:28:29;30.02;;;20.45;;
33844;SDS011;20145;43.118;25.694;2023-03-19T05:30:54;27.58;;;18.77;;
33844;SDS011;20145;43.118;25.694;2023-03-19T05:33:21;24.58;;;19.63;;
33844;SDS011;20145;43.118;25.694;2023-03-19T05:35:47;29.08;;;20.95;;
33844;SDS011;20145;43.118;25.694;2023-03-19T05:38:13;30.45;;;20.88;;
33844;SDS011;20145;43.118;25.694;2023-03-19T05:40:39;27.15;;;19.63;;
33844;SDS011;20145;43.118;25.694;2023-03-19T05:43:08;30.13;;;21.30;;
33844;SDS011;20145;43.118;25.694;2023-03-19T05:45:34;29.17;;;19.00;;
33844;SDS011;20145;43.118;25.694;2023-03-19T05:48:04;26.02;;;19.23;;
33844;SDS011;20145;43.118;25.694;2023-03-19T05:50:30;24.92;;;18.08;;
33844;SDS011;20145;43.118;25.694;2023-03-19T05:52:59;32.63;;;20.73;;
33844;SDS011;20145;43.118;25.694;2023-03-19T05:55:24;30.63;;;20.77;;
33844;SDS011;20145;43.118;25.694;2023-03-19T05:57:50;27.45;;;19.58;;
33844;SDS011;20145;43.118;25.694;2023-03-19T06:00:16;31.27;;;19.70;;
33844;SDS011;20145;43.118;25.694;2023-03-19T06:02:42;28.33;;;20.92;;
33844;SDS011;20145;43.118;25.694;2023-03-19T06:05:08;30.27;;;19.05;;
33844;SDS011;20145;43.118;25.694;2023-03-19T06:07:35;27.17;;;20.83;;
33844;SDS011;20145;43.118;25.694;2023-03-19T06:10:01;35.55;;;27.70;;
33844;SDS011;20145;43.118;25.694;2023-03-19T06:12:26;32.45;;;21.33;;
33844;SDS011;20145;43.118;25.694;2023-03-19T06:14:52;25.13;;;18.17;;
33844;SDS011;20145;43.118;25.694;2023-03-19T06:17:18;25.95;;;18.45;;
33844;SDS011;20145;43.118;25.694;2023-03-19T06:19:44;24.35;;;18.10;;
33844;SDS011;20145;43.118;25.694;2023-03-19T06:22:09;25.10;;;17.60;;
33844;SDS011;20145;43.118;25.694;2023-03-19T06:24:35;26.95;;;18.60;;
33844;SDS011;20145;43.118;25.694;2023-03-19T06:27:01;32.85;;;21.80;;
33844;SDS011;20145;43.118;25.694;2023-03-19T06:29:27;31.15;;;21.40;;
33844;SDS011;20145;43.118;25.694;2023-03-19T06:31:53;25.08;;;18.95;;
33844;SDS011;20145;43.118;25.694;2023-03-19T06:34:18;26.13;;;19.45;;
33844;SDS011;20145;43.118;25.694;2023-03-19T06:36:44;23.47;;;18.53;;
33844;SDS011;20145;43.118;25.694;2023-03-19T06:39:10;26.73;;;19.45;;
33844;SDS011;20145;43.118;25.694;2023-03-19T06:41:37;29.70;;;19.98;;
33844;SDS011;20145;43.118;25.694;2023-03-19T06:44:03;25.95;;;18.05;;
33844;SDS011;20145;43.118;25.694;2023-03-19T06:46:29;29.35;;;20.55;;
33844;SDS011;20145;43.118;25.694;2023-03-19T06:48:56;28.35;;;19.25;;
33844;SDS011;20145;43.118;25.694;2023-03-19T06:51:21;26.27;;;18.38;;
33844;SDS011;20145;43.118;25.694;2023-03-19T06:53:47;27.10;;;18.42;;
33844;SDS011;20145;43.118;25.694;2023-03-19T06:56:13;28.00;;;19.13;;
33844;SDS011;20145;43.118;25.694;2023-03-19T06:58:38;28.55;;;19.55;;
33844;SDS011;20145;43.118;25.694;2023-03-19T07:01:04;32.60;;;20.00;;
33844;SDS011;20145;43.118;25.694;2023-03-19T07:03:29;30.58;;;18.60;;
33844;SDS011;20145;43.118;25.694;2023-03-19T07:05:55;30.67;;;19.95;;
33844;SDS011;20145;43.118;25.694;2023-03-19T07:08:21;27.02;;;18.67;;
33844;SDS011;20145;43.118;25.694;2023-03-19T07:10:46;30.33;;;20.30;;
33844;SDS011;20145;43.118;25.694;2023-03-19T07:13:12;28.67;;;20.23;;
33844;SDS011;20145;43.118;25.694;2023-03-19T07:15:37;29.58;;;20.90;;
33844;SDS011;20145;43.118;25.694;2023-03-19T07:18:03;26.95;;;19.05;;
33844;SDS011;20145;43.118;25.694;2023-03-19T07:20:29;28.73;;;20.90;;
33844;SDS011;20145;43.118;25.694;2023-03-19T07:22:54;27.63;;;19.73;;
33844;SDS011;20145;43.118;25.694;2023-03-19T07:25:20;25.23;;;19.50;;
33844;SDS011;20145;43.118;25.694;2023-03-19T07:27:46;28.40;;;19.67;;
33844;SDS011;20145;43.118;25.694;2023-03-19T07:30:13;22.23;;;16.70;;
33844;SDS011;20145;43.118;25.694;2023-03-19T07:32:40;31.15;;;19.88;;
33844;SDS011;20145;43.118;25.694;2023-03-19T07:35:07;23.98;;;17.40;;
33844;SDS011;20145;43.118;25.694;2023-03-19T07:37:33;26.15;;;18.88;;
33844;SDS011;20145;43.118;25.694;2023-03-19T07:39:59;23.10;;;16.42;;
33844;SDS011;20145;43.118;25.694;2023-03-19T07:42:24;24.85;;;17.88;;
33844;SDS011;20145;43.118;25.694;2023-03-19T07:44:50;23.45;;;17.17;;
33844;SDS011;20145;43.118;25.694;2023-03-19T07:47:15;24.23;;;16.90;;
33844;SDS011;20145;43.118;25.694;2023-03-19T07:49:41;26.25;;;18.27;;
33844;SDS011;20145;43.118;25.694;2023-03-19T07:52:07;26.92;;;17.65;;
33844;SDS011;20145;43.118;25.694;2023-03-19T07:54:33;27.05;;;16.73;;
33844;SDS011;20145;43.118;25.694;2023-03-19T07:56:58;23.13;;;17.65;;
33844;SDS011;20145;43.118;25.694;2023-03-19T07:59:24;23.23;;;17.70;;
33844;SDS011;20145;43.118;25.694;2023-03-19T08:01:50;21.48;;;17.63;;
33844;SDS011;20145;43.118;25.694;2023-03-19T08:04:15;26.52;;;18.23;;
33844;SDS011;20145;43.118;25.694;2023-03-19T08:06:41;23.67;;;17.58;;
33844;SDS011;20145;43.118;25.694;2023-03-19T08:09:07;22.98;;;17.58;;
33844;SDS011;20145;43.118;25.694;2023-03-19T08:11:33;21.63;;;17.50;;
33844;SDS011;20145;43.118;25.694;2023-03-19T08:13:59;22.95;;;16.73;;
33844;SDS011;20145;43.118;25.694;2023-03-19T08:16:26;21.50;;;15.45;;
33844;SDS011;20145;43.118;25.694;2023-03-19T08:18:52;21.40;;;14.63;;
33844;SDS011;20145;43.118;25.694;2023-03-19T08:21:18;21.73;;;15.73;;
33844;SDS011;20145;43.118;25.694;2023-03-19T08:23:43;24.85;;;16.25;;
33844;SDS011;20145;43.118;25.694;2023-03-19T08:26:09;20.25;;;15.32;;
33844;SDS011;20145;43.118;25.694;2023-03-19T08:28:35;20.63;;;15.15;;
33844;SDS011;20145;43.118;25.694;2023-03-19T08:31:06;19.83;;;14.63;;
33844;SDS011;20145;43.118;25.694;2023-03-19T08:33:33;22.17;;;15.60;;
33844;SDS011;20145;43.118;25.694;2023-03-19T08:36:09;22.08;;;15.43;;
33844;SDS011;20145;43.118;25.694;2023-03-19T08:38:37;18.00;;;13.05;;
33844;SDS011;20145;43.118;25.694;2023-03-19T08:41:03;17.48;;;13.18;;
33844;SDS011;20145;43.118;25.694;2023-03-19T08:43:30;19.10;;;13.48;;
33844;SDS011;20145;43.118;25.694;2023-03-19T08:45:57;19.83;;;13.80;;
33844;SDS011;20145;43.118;25.694;2023-03-19T08:48:24;20.75;;;13.27;;
33844;SDS011;20145;43.118;25.694;2023-03-19T08:51:00;20.40;;;13.15;;
33844;SDS011;20145;43.118;25.694;2023-03-19T08:53:27;17.77;;;12.15;;
33844;SDS011;20145;43.118;25.694;2023-03-19T08:55:53;17.90;;;12.50;;
33844;SDS011;20145;43.118;25.694;2023-03-19T08:58:20;17.77;;;11.77;;
33844;SDS011;20145;43.118;25.694;2023-03-19T09:00:46;16.52;;;12.07;;
33844;SDS011;20145;43.118;25.694;2023-03-19T09:03:13;16.90;;;11.82;;
33844;SDS011;20145;43.118;25.694;2023-03-19T09:05:39;21.50;;;12.90;;
33844;SDS011;20145;43.118;25.694;2023-03-19T09:08:05;20.13;;;13.73;;
33844;SDS011;20145;43.118;25.694;2023-03-19T09:10:31;18.08;;;12.40;;
33844;SDS011;20145;43.118;25.694;2023-03-19T09:12:57;15.38;;;12.20;;
33844;SDS011;20145;43.118;25.694;2023-03-19T09:15:22;18.63;;;11.90;;
33844;SDS011;20145;43.118;25.694;2023-03-19T09:17:48;16.45;;;12.15;;
33844;SDS011;20145;43.118;25.694;2023-03-19T09:20:14;13.40;;;11.05;;
33844;SDS011;20145;43.118;25.694;2023-03-19T09:22:40;13.63;;;10.68;;
33844;SDS011;20145;43.118;25.694;2023-03-19T09:25:06;16.52;;;10.23;;
33844;SDS011;20145;43.118;25.694;2023-03-19T09:27:32;16.25;;;12.07;;
33844;SDS011;20145;43.118;25.694;2023-03-19T09:29:58;18.20;;;12.43;;
33844;SDS011;20145;43.118;25.694;2023-03-19T09:32:23;15.00;;;10.60;;
33844;SDS011;20145;43.118;25.694;2023-03-19T09:34:49;13.80;;;10.35;;
33844;SDS011;20145;43.118;25.694;2023-03-19T09:37:14;14.13;;;11.60;;
33844;SDS011;20145;43.118;25.694;2023-03-19T09:39:40;16.30;;;10.23;;
33844;SDS011;20145;43.118;25.694;2023-03-19T09:42:13;17.17;;;11.57;;
33844;SDS011;20145;43.118;25.694;2023-03-19T09:45:13;13.45;;;9.85;;
33844;SDS011;20145;43.118;25.694;2023-03-19T09:47:41;15.30;;;10.48;;
33844;SDS011;20145;43.118;25.694;2023-03-19T09:50:11;15.18;;;11.35;;
33844;SDS011;20145;43.118;25.694;2023-03-19T09:52:55;17.75;;;11.25;;
33844;SDS011;20145;43.118;25.694;2023-03-19T09:58:26;14.43;;;10.57;;
33844;SDS011;20145;43.118;25.694;2023-03-19T10:00:56;13.55;;;11.00;;
33844;SDS011;20145;43.118;25.694;2023-03-19T10:03:36;15.73;;;11.77;;
33844;SDS011;20145;43.118;25.694;2023-03-19T10:17:01;11.95;;;9.52;;
33844;SDS011;20145;43.118;25.694;2023-03-19T10:22:29;12.48;;;9.15;;
33844;SDS011;20145;43.118;25.694;2023-03-19T10:25:02;11.15;;;8.50;;
33844;SDS011;20145;43.118;25.694;2023-03-19T10:27:30;12.52;;;9.48;;
33844;SDS011;20145;43.118;25.694;2023-03-19T10:29:55;12.40;;;8.68;;
33844;SDS011;20145;43.118;25.694;2023-03-19T10:32:37;12.07;;;9.20;;
33844;SDS011;20145;43.118;25.694;2023-03-19T10:35:32;11.65;;;7.80;;
33844;SDS011;20145;43.118;25.694;2023-03-19T10:38:12;10.35;;;7.80;;
33844;SDS011;20145;43.118;25.694;2023-03-19T10:46:11;9.00;;;6.50;;
33844;SDS011;20145;43.118;25.694;2023-03-19T10:48:41;7.65;;;5.47;;
33844;SDS011;20145;43.118;25.694;2023-03-19T10:51:09;8.50;;;4.70;;
33844;SDS011;20145;43.118;25.694;2023-03-19T10:53:39;7.60;;;4.20;;
33844;SDS011;20145;43.118;25.694;2023-03-19T10:56:24;4.65;;;3.13;;
33844;SDS011;20145;43.118;25.694;2023-03-19T11:01:30;7.03;;;5.28;;
33844;SDS011;20145;43.118;25.694;2023-03-19T11:03:59;8.55;;;6.18;;
33844;SDS011;20145;43.118;25.694;2023-03-19T11:06:36;7.75;;;5.82;;
33844;SDS011;20145;43.118;25.694;2023-03-19T11:11:42;9.50;;;6.15;;
33844;SDS011;20145;43.118;25.694;2023-03-19T11:14:13;8.02;;;6.15;;
33844;SDS011;20145;43.118;25.694;2023-03-19T11:19:20;10.98;;;8.15;;
33844;SDS011;20145;43.118;25.694;2023-03-19T11:22:01;11.55;;;7.97;;
33844;SDS011;20145;43.118;25.694;2023-03-19T11:24:26;9.38;;;6.90;;
33844;SDS011;20145;43.118;25.694;2023-03-19T11:26:55;9.23;;;6.82;;
33844;SDS011;20145;43.118;25.694;2023-03-19T11:29:21;8.48;;;6.97;;
33844;SDS011;20145;43.118;25.694;2023-03-19T11:31:57;8.80;;;7.05;;
33844;SDS011;20145;43.118;25.694;2023-03-19T11:34:39;9.65;;;6.70;;
33844;SDS011;20145;43.118;25.694;2023-03-19T11:37:19;9.02;;;6.45;;
33844;SDS011;20145;43.118;25.694;2023-03-19T11:39:56;8.52;;;6.57;;
33844;SDS011;20145;43.118;25.694;2023-03-19T11:50:57;8.05;;;5.72;;
33844;SDS011;20145;43.118;25.694;2023-03-19T11:59:11;8.55;;;6.30;;
33844;SDS011;20145;43.118;25.694;2023-03-19T12:13:14;7.20;;;5.60;;
33844;SDS011;20145;43.118;25.694;2023-03-19T12:18:43;8.55;;;5.60;;
33844;SDS011;20145;43.118;25.694;2023-03-19T12:26:34;8.77;;;6.50;;
33844;SDS011;20145;43.118;25.694;2023-03-19T12:29:07;8.10;;;6.32;;
33844;SDS011;20145;43.118;25.694;2023-03-19T12:34:52;8.35;;;6.32;;
33844;SDS011;20145;43.118;25.694;2023-03-19T12:42:37;7.22;;;5.80;;
33844;SDS011;20145;43.118;25.694;2023-03-19T12:45:11;23.00;;;13.43;;
33844;SDS011;20145;43.118;25.694;2023-03-19T12:48:10;13.82;;;8.38;;
33844;SDS011;20145;43.118;25.694;2023-03-19T12:50:50;20.70;;;10.63;;
33844;SDS011;20145;43.118;25.694;2023-03-19T12:53:33;11.32;;;7.15;;
33844;SDS011;20145;43.118;25.694;2023-03-19T12:56:08;19.13;;;11.20;;
33844;SDS011;20145;43.118;25.694;2023-03-19T12:58:47;41.72;;;18.33;;
33844;SDS011;20145;43.118;25.694;2023-03-19T13:01:16;8.05;;;6.45;;
33844;SDS011;20145;43.118;25.694;2023-03-19T13:04:02;7.47;;;6.28;;
33844;SDS011;20145;43.118;25.694;2023-03-19T13:12:29;9.30;;;5.95;;
33844;SDS011;20145;43.118;25.694;2023-03-19T13:17:37;7.55;;;6.53;;
33844;SDS011;20145;43.118;25.694;2023-03-19T13:22:47;7.95;;;5.50;;
33844;SDS011;20145;43.118;25.694;2023-03-19T13:25:21;9.00;;;5.80;;
33844;SDS011;20145;43.118;25.694;2023-03-19T13:27:54;6.93;;;5.72;;
33844;SDS011;20145;43.118;25.694;2023-03-19T13:30:20;7.35;;;5.68;;
33844;SDS011;20145;43.118;25.694;2023-03-19T13:32:50;10.52;;;6.68;;
33844;SDS011;20145;43.118;25.694;2023-03-19T13:35:35;9.02;;;5.82;;
33844;SDS011;20145;43.118;25.694;2023-03-19T13:40:58;6.82;;;5.40;;
33844;SDS011;20145;43.118;25.694;2023-03-19T13:46:03;6.28;;;5.32;;
33844;SDS011;20145;43.118;25.694;2023-03-19T13:53:37;7.38;;;6.45;;
33844;SDS011;20145;43.118;25.694;2023-03-19T13:56:13;7.20;;;5.40;;
33844;SDS011;20145;43.118;25.694;2023-03-19T13:58:49;7.35;;;6.30;;
33844;SDS011;20145;43.118;25.694;2023-03-19T14:03:55;6.38;;;5.47;;
33844;SDS011;20145;43.118;25.694;2023-03-19T14:06:42;9.35;;;5.78;;
33844;SDS011;20145;43.118;25.694;2023-03-19T14:12:41;9.13;;;6.60;;
33844;SDS011;20145;43.118;25.694;2023-03-19T14:22:51;8.25;;;5.80;;
33844;SDS011;20145;43.118;25.694;2023-03-19T14:25:24;6.97;;;5.47;;
33844;SDS011;20145;43.118;25.694;2023-03-19T14:27:54;8.80;;;6.00;;
33844;SDS011;20145;43.118;25.694;2023-03-19T14:30:39;6.63;;;5.82;;
33844;SDS011;20145;43.118;25.694;2023-03-19T14:33:17;9.65;;;6.20;;
33844;SDS011;20145;43.118;25.694;2023-03-19T14:35:47;8.45;;;6.00;;
33844;SDS011;20145;43.118;25.694;2023-03-19T14:41:27;11.18;;;5.72;;
33844;SDS011;20145;43.118;25.694;2023-03-19T14:55:50;8.75;;;6.40;;
33844;SDS011;20145;43.118;25.694;2023-03-19T14:58:20;8.43;;;6.40;;
33844;SDS011;20145;43.118;25.694;2023-03-19T15:00:50;11.55;;;6.85;;
33844;SDS011;20145;43.118;25.694;2023-03-19T15:03:31;9.38;;;6.88;;
33844;SDS011;20145;43.118;25.694;2023-03-19T15:05:59;9.57;;;6.60;;
33844;SDS011;20145;43.118;25.694;2023-03-19T15:08:27;7.88;;;6.70;;
33844;SDS011;20145;43.118;25.694;2023-03-19T15:18:55;9.00;;;6.20;;
33844;SDS011;20145;43.118;25.694;2023-03-19T15:21:21;9.20;;;6.93;;
33844;SDS011;20145;43.118;25.694;2023-03-19T15:23:48;8.50;;;6.47;;
33844;SDS011;20145;43.118;25.694;2023-03-19T15:26:13;9.18;;;6.00;;
33844;SDS011;20145;43.118;25.694;2023-03-19T15:31:12;7.55;;;5.82;;
33844;SDS011;20145;43.118;25.694;2023-03-19T15:33:38;11.35;;;6.53;;
33844;SDS011;20145;43.118;25.694;2023-03-19T15:36:21;7.68;;;6.10;;
33844;SDS011;20145;43.118;25.694;2023-03-19T15:41:23;9.88;;;7.18;;
33844;SDS011;20145;43.118;25.694;2023-03-19T15:43:52;10.77;;;7.00;;
33844;SDS011;20145;43.118;25.694;2023-03-19T15:46:22;9.40;;;7.63;;
33844;SDS011;20145;43.118;25.694;2023-03-19T15:48:56;10.00;;;6.80;;
33844;SDS011;20145;43.118;25.694;2023-03-19T15:51:27;10.85;;;8.25;;
33844;SDS011;20145;43.118;25.694;2023-03-19T15:53:53;12.55;;;8.48;;
33844;SDS011;20145;43.118;25.694;2023-03-19T15:56:19;8.50;;;6.97;;
33844;SDS011;20145;43.118;25.694;2023-03-19T15:58:46;12.98;;;8.05;;
33844;SDS011;20145;43.118;25.694;2023-03-19T16:01:14;12.73;;;7.85;;
33844;SDS011;20145;43.118;25.694;2023-03-19T16:03:42;15.07;;;11.50;;
33844;SDS011;20145;43.118;25.694;2023-03-19T16:08:52;18.13;;;10.68;;
33844;SDS011;20145;43.118;25.694;2023-03-19T16:11:29;21.45;;;13.05;;
33844;SDS011;20145;43.118;25.694;2023-03-19T16:13:59;21.85;;;16.30;;
33844;SDS011;20145;43.118;25.694;2023-03-19T16:18:54;34.60;;;22.23;;
33844;SDS011;20145;43.118;25.694;2023-03-19T16:21:37;30.42;;;17.92;;
33844;SDS011;20145;43.118;25.694;2023-03-19T16:24:23;31.08;;;16.38;;
33844;SDS011;20145;43.118;25.694;2023-03-19T16:26:55;30.23;;;18.23;;
33844;SDS011;20145;43.118;25.694;2023-03-19T16:31:50;21.55;;;13.00;;
33844;SDS011;20145;43.118;25.694;2023-03-19T16:34:28;60.22;;;32.53;;
33844;SDS011;20145;43.118;25.694;2023-03-19T16:36:59;65.82;;;36.42;;
33844;SDS011;20145;43.118;25.694;2023-03-19T16:44:39;14.27;;;8.23;;
33844;SDS011;20145;43.118;25.694;2023-03-19T16:47:11;12.60;;;9.38;;
33844;SDS011;20145;43.118;25.694;2023-03-19T16:49:38;16.92;;;9.50;;
33844;SDS011;20145;43.118;25.694;2023-03-19T16:52:04;15.95;;;10.43;;
33844;SDS011;20145;43.118;25.694;2023-03-19T16:54:34;17.48;;;12.05;;